Time;durP1;ratioP1;P1;durP2;ratioP2;P2;SDS_P1;SDS_P2;PMS_P1;PMS_P2;Temp;Humidity;BMP_temperature;BMP_pressure;BME280_temperature;BME280_humidity;BME280_pressure;Samples;Min_cycle;Max_cycle;Signal;HPM_P1;HPM_P2
2022/05/31 00:03:06;;;;;;;3.10;1.55;;;;;;;;;;8308514;28;20424;-59
2022/05/31 00:07:06;;;;;;;1.80;1.20;;;;;;;;;;8305730;28;20022;-57
2022/05/31 00:11:07;;;;;;;2.60;1.40;;;;;;;;;;8306604;28;20033;-57
2022/05/31 00:15:08;;;;;;;3.83;1.40;;;;;;;;;;8315112;28;20409;-57
2022/05/31 00:19:08;;;;;;;4.55;1.55;;;;;;;;;;8307901;28;20035;-57
2022/05/31 00:23:08;;;;;;;5.40;1.35;;;;;;;;;;8307532;28;20057;-57
2022/05/31 00:27:10;;;;;;;3.47;1.30;;;;;;;;;;8307556;28;20025;-58
2022/05/31 00:31:11;;;;;;;1.63;1.25;;;;;;;;;;8304587;28;20069;-57
2022/05/31 00:35:15;;;;;;;2.90;1.35;;;;;;;;;;8308287;28;20037;-57
2022/05/31 00:39:16;;;;;;;2.55;1.45;;;;;;;;;;8305631;28;20037;-57
2022/05/31 00:43:22;;;;;;;1.20;1.10;;;;;;;;;;8306911;28;20056;-57
2022/05/31 00:47:26;;;;;;;1.40;1.17;;;;;;;;;;8306353;28;20069;-57
2022/05/31 00:51:32;;;;;;;1.75;1.27;;;;;;;;;;8305423;28;20979;-57
2022/05/31 00:55:38;;;;;;;1.27;1.17;;;;;;;;;;8307170;28;20045;-59
2022/05/31 00:59:45;;;;;;;1.10;1.10;;;;;;;;;;8307647;28;20025;-57
2022/05/31 01:03:45;;;;;;;3.10;1.40;;;;;;;;;;8306620;28;20041;-57
2022/05/31 01:07:46;;;;;;;2.38;1.42;;;;;;;;;;8308410;28;20037;-57
2022/05/31 01:11:46;;;;;;;2.60;1.27;;;;;;;;;;8314525;28;20049;-57
2022/05/31 01:15:47;;;;;;;2.97;1.60;;;;;;;;;;8310672;28;20048;-57
2022/05/31 01:19:57;;;;;;;2.42;1.48;;;;;;;;;;8311067;28;20029;-57
2022/05/31 01:24:10;;;;;;;2.65;1.30;;;;;;;;;;8314038;28;20061;-57
2022/05/31 01:28:17;;;;;;;2.17;1.52;;;;;;;;;;8315195;28;20051;-57
2022/05/31 01:32:17;;;;;;;1.75;1.50;;;;;;;;;;8311573;28;20574;-57
2022/05/31 01:36:20;;;;;;;1.45;1.33;;;;;;;;;;8312964;28;20021;-57
2022/05/31 01:40:32;;;;;;;4.47;1.60;;;;;;;;;;8311096;28;20033;-57
2022/05/31 01:44:35;;;;;;;2.05;1.50;;;;;;;;;;8313382;28;20106;-57
2022/05/31 01:48:36;;;;;;;1.95;1.30;;;;;;;;;;8310991;28;20037;-57
2022/05/31 01:52:37;;;;;;;2.30;1.52;;;;;;;;;;8310586;28;20068;-57
2022/05/31 01:56:39;;;;;;;3.20;1.40;;;;;;;;;;8312475;28;20687;-56
2022/05/31 02:00:40;;;;;;;2.20;1.58;;;;;;;;;;8309724;28;20045;-57
2022/05/31 02:04:42;;;;;;;2.78;1.70;;;;;;;;;;8311161;28;20025;-59
2022/05/31 02:08:42;;;;;;;1.80;1.70;;;;;;;;;;8312613;28;20033;-57
2022/05/31 02:12:42;;;;;;;3.15;1.83;;;;;;;;;;8310762;28;20599;-57
2022/05/31 02:16:43;;;;;;;2.70;1.60;;;;;;;;;;8312608;28;20036;-57
2022/05/31 02:20:43;;;;;;;3.17;1.60;;;;;;;;;;8308818;28;20025;-57
2022/05/31 02:24:43;;;;;;;1.83;1.52;;;;;;;;;;8309782;28;20029;-58
2022/05/31 02:28:43;;;;;;;2.78;1.48;;;;;;;;;;8309200;28;20029;-59
2022/05/31 02:32:43;;;;;;;2.45;1.70;;;;;;;;;;8310227;28;20056;-57
2022/05/31 02:36:44;;;;;;;3.30;1.50;;;;;;;;;;8310523;28;20033;-57
2022/05/31 02:40:44;;;;;;;3.63;1.40;;;;;;;;;;8310019;28;20026;-57
2022/05/31 02:44:44;;;;;;;2.25;1.50;;;;;;;;;;8313164;28;20617;-57
2022/05/31 02:48:44;;;;;;;2.22;1.52;;;;;;;;;;8310740;28;20610;-57
2022/05/31 02:52:45;;;;;;;1.87;1.43;;;;;;;;;;8310336;28;20098;-57
2022/05/31 02:56:48;;;;;;;3.30;1.90;;;;;;;;;;8310309;28;20268;-56
2022/05/31 03:00:48;;;;;;;2.65;1.90;;;;;;;;;;8310846;28;20087;-57
2022/05/31 03:04:48;;;;;;;2.70;2.10;;;;;;;;;;8309339;28;20033;-64
2022/05/31 03:08:49;;;;;;;1.40;1.30;;;;;;;;;;8311304;28;20033;-57
2022/05/31 03:12:49;;;;;;;3.00;1.50;;;;;;;;;;8306622;28;20021;-57
2022/05/31 03:16:53;;;;;;;2.50;1.77;;;;;;;;;;8309867;28;20037;-57
2022/05/31 03:20:55;;;;;;;2.08;1.58;;;;;;;;;;8310265;28;20032;-62
2022/05/31 03:24:58;;;;;;;2.22;1.65;;;;;;;;;;8309740;28;20033;-57
2022/05/31 03:28:58;;;;;;;4.30;1.50;;;;;;;;;;8308379;28;20599;-57
2022/05/31 03:32:59;;;;;;;3.83;1.60;;;;;;;;;;8310827;28;20363;-56
2022/05/31 03:36:59;;;;;;;2.00;1.50;;;;;;;;;;8308537;28;20033;-56
2022/05/31 03:41:00;;;;;;;1.70;1.50;;;;;;;;;;8306561;28;20013;-56
2022/05/31 03:45:00;;;;;;;2.08;1.65;;;;;;;;;;8307419;28;20315;-57
2022/05/31 03:49:00;;;;;;;2.55;1.52;;;;;;;;;;8307591;28;20041;-57
2022/05/31 03:53:01;;;;;;;1.63;1.48;;;;;;;;;;8306860;28;20025;-56
2022/05/31 03:57:02;;;;;;;2.83;1.60;;;;;;;;;;8306290;28;20036;-57
2022/05/31 04:01:04;;;;;;;3.35;1.70;;;;;;;;;;8304389;28;20042;-57
2022/05/31 04:05:04;;;;;;;3.13;1.50;;;;;;;;;;8308702;28;20029;-56
2022/05/31 04:09:04;;;;;;;2.03;1.52;;;;;;;;;;8305047;28;20056;-56
2022/05/31 04:13:05;;;;;;;1.53;1.43;;;;;;;;;;8306124;28;20033;-58
2022/05/31 04:17:05;;;;;;;1.50;1.40;;;;;;;;;;8305537;28;20190;-57
2022/05/31 04:21:07;;;;;;;2.55;1.60;;;;;;;;;;8307408;28;20029;-57
2022/05/31 04:25:07;;;;;;;2.35;1.50;;;;;;;;;;8307853;28;20025;-57
2022/05/31 04:29:08;;;;;;;1.95;1.38;;;;;;;;;;8308118;28;20103;-57
2022/05/31 04:33:08;;;;;;;2.23;1.50;;;;;;;;;;8306663;28;20041;-57
2022/05/31 04:37:09;;;;;;;1.95;1.42;;;;;;;;;;8307614;28;20029;-57
2022/05/31 04:41:25;;;;;;;1.88;1.30;;;;;;;;;;8305599;28;20120;-58
2022/05/31 04:45:26;;;;;;;4.28;1.50;;;;;;;;;;8311203;28;20033;-56
2022/05/31 04:49:26;;;;;;;1.60;1.50;;;;;;;;;;8318078;28;20035;-57
2022/05/31 04:53:26;;;;;;;2.97;1.60;;;;;;;;;;8315423;28;20147;-57
2022/05/31 04:57:27;;;;;;;3.27;1.47;;;;;;;;;;8317872;28;20036;-56
2022/05/31 05:01:27;;;;;;;2.92;1.30;;;;;;;;;;8316485;28;20299;-57
2022/05/31 05:05:30;;;;;;;3.22;1.55;;;;;;;;;;8316022;28;20021;-57
2022/05/31 05:09:31;;;;;;;2.65;1.48;;;;;;;;;;8318586;28;20102;-57
2022/05/31 05:13:31;;;;;;;2.63;1.38;;;;;;;;;;8315617;28;20066;-58
2022/05/31 05:17:32;;;;;;;3.50;1.50;;;;;;;;;;8317927;28;20028;-58
2022/05/31 05:21:32;;;;;;;3.47;1.35;;;;;;;;;;8317242;28;20030;-58
2022/05/31 05:25:32;;;;;;;1.95;1.50;;;;;;;;;;8318408;28;20027;-57
2022/05/31 05:33:51;;;;;;;2.85;1.48;;;;;;;;;;8313647;28;20044;-57
2022/05/31 05:37:53;;;;;;;2.72;1.70;;;;;;;;;;8314531;28;20144;-57
2022/05/31 05:41:53;;;;;;;2.40;1.40;;;;;;;;;;8315871;28;20055;-58
2022/05/31 05:45:53;;;;;;;3.03;1.30;;;;;;;;;;8315701;28;20037;-57
2022/05/31 05:49:53;;;;;;;2.40;1.52;;;;;;;;;;8315519;28;20254;-58
2022/05/31 05:53:54;;;;;;;3.08;1.40;;;;;;;;;;8311866;28;20561;-58
2022/05/31 05:57:54;;;;;;;1.83;1.45;;;;;;;;;;8308901;28;20022;-58
2022/05/31 06:01:57;;;;;;;4.10;1.45;;;;;;;;;;8310674;28;20048;-57
2022/05/31 06:05:58;;;;;;;1.40;1.23;;;;;;;;;;8310954;28;21233;-58
2022/05/31 06:10:19;;;;;;;3.00;1.50;;;;;;;;;;8314833;28;20025;-58
2022/05/31 06:14:28;;;;;;;2.33;1.40;;;;;;;;;;8327531;28;20021;-59
2022/05/31 06:18:34;;;;;;;1.25;1.15;;;;;;;;;;8309183;28;20556;-58
2022/05/31 06:22:35;;;;;;;1.65;1.40;;;;;;;;;;8308103;28;20057;-58
2022/05/31 06:26:35;;;;;;;2.03;1.52;;;;;;;;;;8309125;28;20033;-58
2022/05/31 06:30:37;;;;;;;1.42;1.20;;;;;;;;;;8307195;28;20037;-58
2022/05/31 06:34:39;;;;;;;1.65;1.23;;;;;;;;;;8307254;28;20029;-58
2022/05/31 06:38:40;;;;;;;1.50;1.30;;;;;;;;;;8309793;28;20035;-60
2022/05/31 06:42:41;;;;;;;1.95;1.27;;;;;;;;;;8307856;28;20033;-59
2022/05/31 06:46:41;;;;;;;2.60;1.20;;;;;;;;;;8308695;28;20064;-59
2022/05/31 06:50:41;;;;;;;4.25;1.20;;;;;;;;;;8304260;28;20029;-58
2022/05/31 06:59:01;;;;;;;1.52;1.30;;;;;;;;;;8308089;28;20083;-58
2022/05/31 07:03:01;;;;;;;1.90;1.20;;;;;;;;;;8308310;28;20034;-58
2022/05/31 07:07:01;;;;;;;1.75;1.30;;;;;;;;;;8306052;28;20259;-58
2022/05/31 07:11:02;;;;;;;2.67;1.20;;;;;;;;;;8308107;28;20052;-58
2022/05/31 07:15:02;;;;;;;1.65;1.20;;;;;;;;;;8307701;28;20025;-59
2022/05/31 07:19:03;;;;;;;1.73;1.38;;;;;;;;;;8308051;28;20568;-59
2022/05/31 07:23:03;;;;;;;1.77;1.15;;;;;;;;;;8305719;28;20013;-58
2022/05/31 07:27:03;;;;;;;2.00;1.20;;;;;;;;;;8306611;28;20510;-58
2022/05/31 07:31:04;;;;;;;2.22;1.10;;;;;;;;;;8303208;28;20029;-59
2022/05/31 07:35:04;;;;;;;2.60;1.10;;;;;;;;;;8308630;28;20050;-58
2022/05/31 07:39:08;;;;;;;1.98;1.20;;;;;;;;;;8307367;28;20096;-59
2022/05/31 07:43:08;;;;;;;4.68;1.48;;;;;;;;;;8308494;28;20022;-58
2022/05/31 07:47:08;;;;;;;2.60;1.23;;;;;;;;;;8306654;28;20028;-59
2022/05/31 07:51:08;;;;;;;2.20;1.15;;;;;;;;;;8306300;28;20409;-59
2022/05/31 07:55:09;;;;;;;1.20;1.10;;;;;;;;;;8306664;28;20029;-59
2022/05/31 07:59:09;;;;;;;3.30;1.10;;;;;;;;;;8303580;28;20751;-58
2022/05/31 08:03:09;;;;;;;3.50;1.30;;;;;;;;;;8305944;28;20383;-58
2022/05/31 08:07:11;;;;;;;4.87;1.23;;;;;;;;;;8305072;28;20048;-58
2022/05/31 08:11:16;;;;;;;3.00;1.20;;;;;;;;;;8308674;28;20336;-59
2022/05/31 08:15:17;;;;;;;1.13;0.93;;;;;;;;;;8305807;28;20527;-59
2022/05/31 08:19:17;;;;;;;5.73;1.20;;;;;;;;;;8304749;28;20896;-59
2022/05/31 08:23:17;;;;;;;3.13;1.25;;;;;;;;;;8305137;28;20744;-58
2022/05/31 08:27:18;;;;;;;1.63;1.05;;;;;;;;;;8306692;28;20114;-59
2022/05/31 08:31:23;;;;;;;6.38;1.20;;;;;;;;;;8304877;28;20033;-59
2022/05/31 08:35:23;;;;;;;1.95;1.20;;;;;;;;;;8305149;28;20056;-59
2022/05/31 08:39:23;;;;;;;2.78;1.60;;;;;;;;;;8306010;28;20025;-59
2022/05/31 08:43:32;;;;;;;3.55;1.35;;;;;;;;;;8300822;28;20021;-58
2022/05/31 08:47:43;;;;;;;3.53;1.35;;;;;;;;;;8306401;28;20048;-59
2022/05/31 08:51:55;;;;;;;2.10;1.08;;;;;;;;;;8305598;28;20033;-58
2022/05/31 09:00:19;;;;;;;2.63;1.20;;;;;;;;;;8302442;28;20308;-58
2022/05/31 09:04:20;;;;;;;1.63;1.20;;;;;;;;;;8302658;28;20017;-58
2022/05/31 09:08:28;;;;;;;3.92;1.33;;;;;;;;;;8308351;28;20341;-59
2022/05/31 09:12:36;;;;;;;3.85;1.20;;;;;;;;;;8303598;28;20038;-59
2022/05/31 09:16:45;;;;;;;2.30;1.30;;;;;;;;;;8305171;28;20057;-59
2022/05/31 09:20:48;;;;;;;1.88;1.20;;;;;;;;;;8303290;28;20018;-59
2022/05/31 09:24:48;;;;;;;2.75;1.25;;;;;;;;;;8305069;28;20045;-59
2022/05/31 09:28:51;;;;;;;1.48;1.00;;;;;;;;;;8306210;28;20072;-59
2022/05/31 09:33:06;;;;;;;1.90;1.23;;;;;;;;;;8311524;28;20040;-59
2022/05/31 09:37:17;;;;;;;2.95;1.60;;;;;;;;;;8311059;28;20033;-63
2022/05/31 09:41:37;;;;;;;3.08;1.30;;;;;;;;;;8308084;28;20215;-58
2022/05/31 09:45:40;;;;;;;1.85;1.20;;;;;;;;;;8311967;28;20033;-59
2022/05/31 09:49:43;;;;;;;3.08;1.40;;;;;;;;;;8310200;28;20040;-58
2022/05/31 09:58:23;;;;;;;3.25;1.20;;;;;;;;;;8309095;28;20112;-58
2022/05/31 10:02:28;;;;;;;3.97;1.20;;;;;;;;;;8299692;28;20135;-58
2022/05/31 10:06:32;;;;;;;3.03;1.20;;;;;;;;;;8305761;28;20473;-58
2022/05/31 10:10:34;;;;;;;1.60;1.10;;;;;;;;;;8306087;28;20025;-59
2022/05/31 10:14:36;;;;;;;1.60;1.00;;;;;;;;;;8306575;28;20105;-58
2022/05/31 10:18:47;;;;;;;1.77;1.05;;;;;;;;;;8308861;28;20845;-59
2022/05/31 10:22:52;;;;;;;1.00;0.90;;;;;;;;;;8308565;28;20140;-59
2022/05/31 10:27:05;;;;;;;1.27;0.95;;;;;;;;;;8309686;28;20032;-59
2022/05/31 10:31:19;;;;;;;4.05;1.00;;;;;;;;;;8306330;28;20087;-59
2022/05/31 10:35:26;;;;;;;3.08;1.13;;;;;;;;;;8307286;28;20112;-59
2022/05/31 10:39:28;;;;;;;1.80;1.00;;;;;;;;;;8306590;28;20139;-59
2022/05/31 10:43:38;;;;;;;1.83;1.30;;;;;;;;;;8309161;28;20119;-58
2022/05/31 10:47:38;;;;;;;2.90;0.98;;;;;;;;;;8308205;28;20413;-58
2022/05/31 10:51:47;;;;;;;2.23;1.10;;;;;;;;;;8307714;28;20420;-59
2022/05/31 10:55:57;;;;;;;3.20;1.10;;;;;;;;;;8307458;28;20037;-59
2022/05/31 11:00:08;;;;;;;1.10;1.00;;;;;;;;;;8310218;28;20025;-58
2022/05/31 11:04:14;;;;;;;3.90;1.10;;;;;;;;;;8306242;28;20045;-59
2022/05/31 11:13:07;;;;;;;1.05;0.93;;;;;;;;;;8307539;28;20607;-59
2022/05/31 11:17:08;;;;;;;1.58;1.10;;;;;;;;;;8304505;28;20041;-58
2022/05/31 11:21:11;;;;;;;2.90;0.88;;;;;;;;;;8307885;28;20562;-58
2022/05/31 11:25:21;;;;;;;1.17;0.90;;;;;;;;;;8307742;28;20762;-59
2022/05/31 11:29:24;;;;;;;3.05;0.90;;;;;;;;;;8304941;28;20159;-59
2022/05/31 11:33:28;;;;;;;1.38;1.05;;;;;;;;;;8302103;28;20043;-59
2022/05/31 11:37:47;;;;;;;3.85;1.00;;;;;;;;;;8308004;28;20168;-59
2022/05/31 11:42:06;;;;;;;1.65;1.13;;;;;;;;;;8304476;28;20045;-59
2022/05/31 11:46:13;;;;;;;0.98;0.93;;;;;;;;;;8307679;28;20409;-59
2022/05/31 11:50:22;;;;;;;1.88;1.02;;;;;;;;;;8304509;28;20025;-59
2022/05/31 11:54:41;;;;;;;2.03;0.90;;;;;;;;;;8301324;28;20524;-59
2022/05/31 11:58:41;;;;;;;0.90;0.80;;;;;;;;;;8305760;28;20034;-59
2022/05/31 12:02:48;;;;;;;1.25;0.95;;;;;;;;;;8308392;28;20051;-59
2022/05/31 12:07:04;;;;;;;2.88;1.05;;;;;;;;;;8303712;28;20022;-59
2022/05/31 12:11:08;;;;;;;2.70;0.98;;;;;;;;;;8304406;28;20021;-59
2022/05/31 12:15:14;;;;;;;4.60;1.00;;;;;;;;;;8308550;28;20029;-59
2022/05/31 12:19:17;;;;;;;0.95;0.88;;;;;;;;;;8307613;28;20029;-59
2022/05/31 12:23:26;;;;;;;2.05;1.00;;;;;;;;;;8306881;28;21032;-59
2022/05/31 12:27:31;;;;;;;1.45;1.10;;;;;;;;;;8303201;28;20582;-59
2022/05/31 12:31:32;;;;;;;1.85;0.93;;;;;;;;;;8302965;28;20134;-58
2022/05/31 12:35:33;;;;;;;3.30;1.00;;;;;;;;;;8308567;28;20029;-59
2022/05/31 12:39:35;;;;;;;3.72;1.10;;;;;;;;;;8310090;28;20477;-59
2022/05/31 12:43:41;;;;;;;1.20;0.90;;;;;;;;;;8306108;28;20128;-60
2022/05/31 12:47:41;;;;;;;1.00;0.90;;;;;;;;;;8307416;28;20103;-58
2022/05/31 12:52:01;;;;;;;1.40;1.00;;;;;;;;;;8305064;28;20026;-59
2022/05/31 12:56:02;;;;;;;1.65;0.90;;;;;;;;;;8307432;28;20203;-58
2022/05/31 13:00:04;;;;;;;1.98;1.10;;;;;;;;;;8306097;28;20106;-59
2022/05/31 13:04:20;;;;;;;2.15;0.90;;;;;;;;;;8306385;28;20059;-59
2022/05/31 13:08:21;;;;;;;2.55;1.05;;;;;;;;;;8313523;28;20661;-58
2022/05/31 13:21:11;;;;;;;3.42;1.20;;;;;;;;;;8308527;28;20095;-58
2022/05/31 13:25:24;;;;;;;4.47;1.20;;;;;;;;;;8309194;28;20029;-58
2022/05/31 13:29:24;;;;;;;1.70;1.05;;;;;;;;;;8312426;28;20025;-58
2022/05/31 13:33:24;;;;;;;2.00;1.10;;;;;;;;;;8311200;28;20102;-59
2022/05/31 13:37:25;;;;;;;2.95;1.10;;;;;;;;;;8312213;28;20031;-58
2022/05/31 13:41:25;;;;;;;2.22;1.20;;;;;;;;;;8309889;28;20025;-59
2022/05/31 13:45:26;;;;;;;5.95;1.30;;;;;;;;;;8308167;28;20040;-59
2022/05/31 13:49:38;;;;;;;1.63;0.90;;;;;;;;;;8312482;28;20033;-58
2022/05/31 13:53:39;;;;;;;1.48;0.80;;;;;;;;;;8309199;28;20496;-59
2022/05/31 13:57:53;;;;;;;2.13;1.30;;;;;;;;;;8311341;28;20032;-59
2022/05/31 14:01:53;;;;;;;2.30;1.00;;;;;;;;;;8309921;28;20400;-58
2022/05/31 14:05:59;;;;;;;3.57;1.00;;;;;;;;;;8310083;28;20041;-58
2022/05/31 14:10:00;;;;;;;2.78;1.05;;;;;;;;;;8310029;28;20025;-58
2022/05/31 14:14:01;;;;;;;3.58;1.20;;;;;;;;;;8311759;28;20028;-59
2022/05/31 14:18:04;;;;;;;2.25;1.10;;;;;;;;;;8309109;28;20038;-58
2022/05/31 14:22:21;;;;;;;2.88;1.00;;;;;;;;;;8307548;28;20022;-59
2022/05/31 14:26:22;;;;;;;5.05;1.20;;;;;;;;;;8308914;28;20025;-58
2022/05/31 14:30:30;;;;;;;1.20;1.10;;;;;;;;;;8302588;28;20049;-57
2022/05/31 14:34:36;;;;;;;3.15;1.20;;;;;;;;;;8300843;28;20017;-59
2022/05/31 14:38:45;;;;;;;1.48;1.10;;;;;;;;;;8302204;28;20021;-59
2022/05/31 14:42:56;;;;;;;2.85;1.10;;;;;;;;;;8304904;28;20112;-58
2022/05/31 14:51:44;;;;;;;3.38;1.02;;;;;;;;;;8284107;28;20083;-59
2022/05/31 14:55:45;;;;;;;4.50;1.20;;;;;;;;;;8304625;28;20375;-59
2022/05/31 14:59:46;;;;;;;2.25;1.00;;;;;;;;;;8308251;28;20033;-58
2022/05/31 15:04:16;;;;;;;3.75;1.30;;;;;;;;;;8307788;28;20738;-58
2022/05/31 15:08:27;;;;;;;2.58;1.10;;;;;;;;;;8309473;28;20056;-59
2022/05/31 15:21:05;;;;;;;4.55;1.27;;;;;;;;;;8309072;28;20067;-59
2022/05/31 15:25:06;;;;;;;2.13;1.20;;;;;;;;;;8309197;28;20021;-60
2022/05/31 15:29:06;;;;;;;1.73;1.02;;;;;;;;;;8309280;28;20132;-58
2022/05/31 15:33:06;;;;;;;4.43;1.20;;;;;;;;;;8305199;28;20056;-58
2022/05/31 15:37:07;;;;;;;1.90;1.02;;;;;;;;;;8304937;28;20477;-58
2022/05/31 15:41:07;;;;;;;8.38;1.33;;;;;;;;;;8303161;28;21001;-58
2022/05/31 15:45:10;;;;;;;9.87;1.43;;;;;;;;;;8307266;28;20053;-59
2022/05/31 15:49:12;;;;;;;1.73;1.13;;;;;;;;;;8301585;28;20450;-58
2022/05/31 15:53:12;;;;;;;1.20;1.10;;;;;;;;;;8302614;28;20282;-57
2022/05/31 15:57:13;;;;;;;1.67;0.90;;;;;;;;;;8303880;28;20112;-58
2022/05/31 16:01:13;;;;;;;1.52;0.98;;;;;;;;;;8305816;28;20072;-58
2022/05/31 16:05:15;;;;;;;1.50;1.30;;;;;;;;;;8304093;28;20524;-58
2022/05/31 16:09:17;;;;;;;4.10;1.00;;;;;;;;;;8302603;28;20274;-58
2022/05/31 16:13:18;;;;;;;2.67;1.17;;;;;;;;;;8301602;28;20422;-59
2022/05/31 16:17:19;;;;;;;3.53;1.10;;;;;;;;;;8303987;28;20038;-58
2022/05/31 16:21:19;;;;;;;1.13;1.00;;;;;;;;;;8303368;28;20033;-59
2022/05/31 16:25:22;;;;;;;1.67;1.13;;;;;;;;;;8306712;28;20016;-58
2022/05/31 16:29:22;;;;;;;3.17;1.17;;;;;;;;;;8305756;28;20110;-58
2022/05/31 16:33:24;;;;;;;2.17;1.08;;;;;;;;;;8300942;28;20749;-58
2022/05/31 16:41:43;;;;;;;1.98;1.00;;;;;;;;;;8304546;28;20596;-58
2022/05/31 16:45:44;;;;;;;1.85;1.02;;;;;;;;;;8301583;28;20033;-58
2022/05/31 16:49:45;;;;;;;5.63;3.03;;;;;;;;;;8306081;28;20036;-58
2022/05/31 16:53:45;;;;;;;3.17;1.20;;;;;;;;;;8303535;28;20114;-58
2022/05/31 16:57:46;;;;;;;1.25;1.10;;;;;;;;;;8302388;28;20502;-58
2022/05/31 17:01:46;;;;;;;4.80;1.10;;;;;;;;;;8302045;28;20050;-59
2022/05/31 17:05:47;;;;;;;3.38;1.17;;;;;;;;;;8304565;28;20128;-59
2022/05/31 17:14:24;;;;;;;1.85;1.30;;;;;;;;;;8304954;28;20029;-60
2022/05/31 17:18:24;;;;;;;1.75;1.00;;;;;;;;;;8297107;28;20068;-58
2022/05/31 17:22:25;;;;;;;1.63;1.07;;;;;;;;;;8295706;28;20029;-57
2022/05/31 17:26:26;;;;;;;3.23;1.03;;;;;;;;;;8298421;28;20082;-58
2022/05/31 17:30:26;;;;;;;1.13;0.90;;;;;;;;;;8295408;28;20832;-57
2022/05/31 17:34:27;;;;;;;2.47;1.00;;;;;;;;;;8297928;28;20036;-57
2022/05/31 17:38:29;;;;;;;1.37;1.10;;;;;;;;;;8295552;28;20035;-57
2022/05/31 17:42:29;;;;;;;1.23;0.90;;;;;;;;;;8299511;28;20079;-57
2022/05/31 17:46:30;;;;;;;0.98;0.90;;;;;;;;;;8294525;28;20037;-57
2022/05/31 17:50:30;;;;;;;2.22;0.98;;;;;;;;;;8296985;28;20121;-57
2022/05/31 17:54:31;;;;;;;2.25;0.80;;;;;;;;;;8301742;28;20040;-57
2022/05/31 17:58:33;;;;;;;2.22;1.10;;;;;;;;;;8302612;28;20025;-56
2022/05/31 18:02:34;;;;;;;1.60;0.90;;;;;;;;;;8299205;28;20041;-56
2022/05/31 18:06:34;;;;;;;2.60;0.95;;;;;;;;;;8301391;28;20595;-56
2022/05/31 18:10:35;;;;;;;2.53;0.80;;;;;;;;;;8302874;28;20025;-56
2022/05/31 18:14:36;;;;;;;1.73;0.90;;;;;;;;;;8302232;28;20020;-57
2022/05/31 18:18:36;;;;;;;0.82;0.80;;;;;;;;;;8298224;28;20343;-57
2022/05/31 18:22:36;;;;;;;1.87;0.90;;;;;;;;;;8299812;28;20021;-57
2022/05/31 18:26:38;;;;;;;1.45;1.00;;;;;;;;;;8301189;28;20033;-59
2022/05/31 18:30:38;;;;;;;0.93;0.80;;;;;;;;;;8304143;28;20118;-58
2022/05/31 18:34:39;;;;;;;1.00;0.90;;;;;;;;;;8306843;28;20067;-58
2022/05/31 18:38:59;;;;;;;0.88;0.80;;;;;;;;;;8306817;28;20033;-59
2022/05/31 18:43:05;;;;;;;2.17;0.82;;;;;;;;;;8306925;28;20028;-57
2022/05/31 18:47:05;;;;;;;0.93;0.80;;;;;;;;;;8304965;28;20489;-57
2022/05/31 18:51:05;;;;;;;0.80;0.80;;;;;;;;;;8306103;28;20772;-57
2022/05/31 18:55:07;;;;;;;2.83;0.95;;;;;;;;;;8308643;28;20865;-59
2022/05/31 18:59:08;;;;;;;1.40;0.90;;;;;;;;;;8306503;28;20497;-59
2022/05/31 19:03:09;;;;;;;0.88;0.70;;;;;;;;;;8306215;28;20127;-57
2022/05/31 19:07:09;;;;;;;1.95;0.85;;;;;;;;;;8306547;28;20017;-57
2022/05/31 19:11:10;;;;;;;1.02;0.90;;;;;;;;;;8306210;28;20496;-57
2022/05/31 19:15:11;;;;;;;1.60;0.80;;;;;;;;;;8306998;28;20087;-56
2022/05/31 19:19:11;;;;;;;1.42;0.95;;;;;;;;;;8305818;28;20025;-57
2022/05/31 19:23:11;;;;;;;1.95;1.05;;;;;;;;;;8307549;28;20025;-57
2022/05/31 19:27:13;;;;;;;2.00;1.10;;;;;;;;;;8304652;28;20136;-58
2022/05/31 19:31:18;;;;;;;5.72;1.13;;;;;;;;;;8307339;28;20148;-56
2022/05/31 19:35:19;;;;;;;2.42;1.08;;;;;;;;;;8308128;28;20072;-57
2022/05/31 19:39:20;;;;;;;1.35;0.90;;;;;;;;;;8305886;28;20029;-57
2022/05/31 19:43:21;;;;;;;1.58;0.77;;;;;;;;;;8304123;28;20112;-56
2022/05/31 19:47:21;;;;;;;2.33;0.90;;;;;;;;;;8306440;28;20528;-57
2022/05/31 19:51:21;;;;;;;3.25;0.90;;;;;;;;;;8305316;28;20036;-56
2022/05/31 19:55:26;;;;;;;1.98;0.93;;;;;;;;;;8306527;28;20083;-57
2022/05/31 19:59:26;;;;;;;2.22;1.00;;;;;;;;;;8306961;28;20147;-60
2022/05/31 20:03:27;;;;;;;2.72;0.88;;;;;;;;;;8305473;28;20742;-56
2022/05/31 20:07:27;;;;;;;1.00;0.80;;;;;;;;;;8303930;28;20020;-57
2022/05/31 20:11:28;;;;;;;4.07;1.10;;;;;;;;;;8306437;28;20033;-57
2022/05/31 20:15:32;;;;;;;1.85;0.80;;;;;;;;;;8303746;28;20033;-58
2022/05/31 20:23:41;;;;;;;0.95;0.80;;;;;;;;;;8304331;28;20136;-59
2022/05/31 20:27:41;;;;;;;0.80;0.80;;;;;;;;;;8302179;28;20445;-56
2022/05/31 20:31:42;;;;;;;1.27;1.00;;;;;;;;;;8304147;28;20026;-56
2022/05/31 20:35:44;;;;;;;1.27;1.00;;;;;;;;;;8300878;28;20131;-56
2022/05/31 20:39:45;;;;;;;1.40;0.90;;;;;;;;;;8303700;28;20103;-60
2022/05/31 20:43:46;;;;;;;2.30;0.80;;;;;;;;;;8303631;28;20801;-56
2022/05/31 20:47:46;;;;;;;1.02;0.70;;;;;;;;;;8305925;28;20081;-57
2022/05/31 20:51:47;;;;;;;1.38;0.80;;;;;;;;;;8306966;28;20549;-56
2022/05/31 20:55:47;;;;;;;3.13;0.90;;;;;;;;;;8308023;28;20045;-56
2022/05/31 20:59:48;;;;;;;0.70;0.70;;;;;;;;;;8305404;28;20132;-56
2022/05/31 21:03:48;;;;;;;2.58;0.85;;;;;;;;;;8306441;28;20034;-56
2022/05/31 21:07:50;;;;;;;3.38;0.80;;;;;;;;;;8307250;28;20045;-56
2022/05/31 21:11:50;;;;;;;0.98;0.88;;;;;;;;;;8306156;28;20040;-56
2022/05/31 21:15:53;;;;;;;0.73;0.70;;;;;;;;;;8305955;28;20075;-56
2022/05/31 21:19:54;;;;;;;0.93;0.90;;;;;;;;;;8308009;28;20031;-56
2022/05/31 21:23:54;;;;;;;2.78;0.80;;;;;;;;;;8308279;28;20057;-56
2022/05/31 21:27:55;;;;;;;1.47;0.80;;;;;;;;;;8312129;28;20021;-56
2022/05/31 21:31:56;;;;;;;1.40;0.90;;;;;;;;;;8312151;28;20107;-59
2022/05/31 21:35:56;;;;;;;1.13;0.85;;;;;;;;;;8311340;28;20091;-56
2022/05/31 21:44:15;;;;;;;3.40;0.90;;;;;;;;;;8314270;28;20036;-56
2022/05/31 21:48:16;;;;;;;1.13;0.90;;;;;;;;;;8311999;28;20036;-56
2022/05/31 21:52:17;;;;;;;1.55;1.23;;;;;;;;;;8313402;28;20124;-56
2022/05/31 21:56:18;;;;;;;1.40;0.90;;;;;;;;;;8313018;28;20033;-56
2022/05/31 22:00:21;;;;;;;2.40;1.10;;;;;;;;;;8309876;28;20041;-56
2022/05/31 22:04:22;;;;;;;1.23;0.80;;;;;;;;;;8313730;28;20847;-57
2022/05/31 22:08:22;;;;;;;3.60;0.90;;;;;;;;;;8313441;28;20048;-56
2022/05/31 22:12:22;;;;;;;2.05;1.05;;;;;;;;;;8312628;28;20500;-65
2022/05/31 22:16:23;;;;;;;0.83;0.83;;;;;;;;;;8311488;28;20041;-56
2022/05/31 22:20:23;;;;;;;1.58;1.00;;;;;;;;;;8313191;28;20322;-55
2022/05/31 22:25:12;;;;;;;1.20;1.00;;;;;;;;;;8312447;28;20032;-56
2022/05/31 22:28:43;;;;;;;0.90;0.90;;;;;;;;;;8310765;28;20203;-55
2022/05/31 22:32:44;;;;;;;2.05;1.10;;;;;;;;;;8311551;28;20033;-56
2022/05/31 22:36:44;;;;;;;2.25;1.10;;;;;;;;;;8307515;28;20159;-56
2022/05/31 22:40:45;;;;;;;1.20;1.00;;;;;;;;;;8308618;28;20438;-58
2022/05/31 22:44:46;;;;;;;1.80;1.27;;;;;;;;;;8310049;28;20033;-57
2022/05/31 22:48:46;;;;;;;3.38;1.20;;;;;;;;;;8311191;28;20037;-56
2022/05/31 22:52:46;;;;;;;1.17;1.00;;;;;;;;;;8308276;28;20029;-56
2022/05/31 22:56:46;;;;;;;2.15;1.08;;;;;;;;;;8314264;28;20389;-56
2022/05/31 23:00:48;;;;;;;1.27;1.03;;;;;;;;;;8308454;28;20043;-56
2022/05/31 23:04:48;;;;;;;2.78;1.15;;;;;;;;;;8310899;28;20268;-56
2022/05/31 23:08:48;;;;;;;1.47;1.10;;;;;;;;;;8307277;28;20037;-56
2022/05/31 23:12:49;;;;;;;1.35;1.25;;;;;;;;;;8307714;28;20021;-56
2022/05/31 23:16:49;;;;;;;1.65;1.30;;;;;;;;;;8311138;28;20037;-56
2022/05/31 23:21:00;;;;;;;1.65;1.15;;;;;;;;;;8308962;28;20151;-56
2022/05/31 23:25:01;;;;;;;0.90;0.90;;;;;;;;;;8308855;28;20108;-56
2022/05/31 23:29:04;;;;;;;1.27;1.17;;;;;;;;;;8309154;28;20069;-56
2022/05/31 23:33:06;;;;;;;1.85;1.10;;;;;;;;;;8309450;28;20040;-56
2022/05/31 23:37:06;;;;;;;1.02;1.02;;;;;;;;;;8309506;28;20028;-56
2022/05/31 23:41:07;;;;;;;2.03;1.20;;;;;;;;;;8309146;28;20029;-56
2022/05/31 23:45:07;;;;;;;1.20;1.10;;;;;;;;;;8306338;28;20275;-56
2022/05/31 23:49:07;;;;;;;1.70;1.10;;;;;;;;;;8308169;28;20025;-56
2022/05/31 23:53:09;;;;;;;1.75;1.27;;;;;;;;;;8308335;28;20119;-56
2022/05/31 23:57:09;;;;;;;1.20;1.20;;;;;;;;;;8310672;28;20033;-56
